sensor_id;sensor_type;location;lat;lon;timestamp;P1;durP1;ratioP1;P2;durP2;ratioP2
11935;SDS011;6027;48.576;9.180;2023-03-01T00:01:01;15.30;;;12.80;;
11935;SDS011;6027;48.576;9.180;2023-03-01T00:03:28;13.90;;;12.47;;
11935;SDS011;6027;48.576;9.180;2023-03-01T00:05:53;14.27;;;12.77;;
11935;SDS011;6027;48.576;9.180;2023-03-01T00:08:19;15.97;;;13.20;;
11935;SDS011;6027;48.576;9.180;2023-03-01T00:10:44;13.57;;;12.27;;
11935;SDS011;6027;48.576;9.180;2023-03-01T00:13:10;18.03;;;13.43;;
11935;SDS011;6027;48.576;9.180;2023-03-01T00:15:37;15.87;;;12.60;;
11935;SDS011;6027;48.576;9.180;2023-03-01T00:18:07;15.97;;;13.10;;
11935;SDS011;6027;48.576;9.180;2023-03-01T00:20:33;13.60;;;12.20;;
11935;SDS011;6027;48.576;9.180;2023-03-01T00:22:59;16.30;;;13.70;;
11935;SDS011;6027;48.576;9.180;2023-03-01T00:25:24;16.77;;;13.10;;
11935;SDS011;6027;48.576;9.180;2023-03-01T00:27:50;13.77;;;12.20;;
11935;SDS011;6027;48.576;9.180;2023-03-01T00:30:15;14.47;;;12.10;;
11935;SDS011;6027;48.576;9.180;2023-03-01T00:32:41;14.93;;;11.97;;
11935;SDS011;6027;48.576;9.180;2023-03-01T00:35:06;15.37;;;12.47;;
11935;SDS011;6027;48.576;9.180;2023-03-01T00:37:32;15.80;;;11.40;;
11935;SDS011;6027;48.576;9.180;2023-03-01T00:39:57;13.53;;;12.07;;
11935;SDS011;6027;48.576;9.180;2023-03-01T00:42:23;12.97;;;11.37;;
11935;SDS011;6027;48.576;9.180;2023-03-01T00:44:48;14.43;;;12.40;;
11935;SDS011;6027;48.576;9.180;2023-03-01T00:47:14;14.07;;;11.80;;
11935;SDS011;6027;48.576;9.180;2023-03-01T00:49:39;13.47;;;11.87;;
11935;SDS011;6027;48.576;9.180;2023-03-01T00:52:05;14.50;;;12.83;;
11935;SDS011;6027;48.576;9.180;2023-03-01T00:54:30;15.33;;;11.93;;
11935;SDS011;6027;48.576;9.180;2023-03-01T00:56:56;13.47;;;11.73;;
11935;SDS011;6027;48.576;9.180;2023-03-01T00:59:22;13.70;;;12.23;;
11935;SDS011;6027;48.576;9.180;2023-03-01T01:01:47;15.87;;;13.63;;
11935;SDS011;6027;48.576;9.180;2023-03-01T01:04:13;13.97;;;11.83;;
11935;SDS011;6027;48.576;9.180;2023-03-01T01:06:43;14.07;;;11.80;;
11935;SDS011;6027;48.576;9.180;2023-03-01T01:09:11;15.97;;;13.27;;
11935;SDS011;6027;48.576;9.180;2023-03-01T01:11:42;16.90;;;13.30;;
11935;SDS011;6027;48.576;9.180;2023-03-01T01:14:15;14.30;;;12.50;;
11935;SDS011;6027;48.576;9.180;2023-03-01T01:16:41;14.93;;;12.43;;
11935;SDS011;6027;48.576;9.180;2023-03-01T01:19:07;14.17;;;12.10;;
11935;SDS011;6027;48.576;9.180;2023-03-01T01:21:33;16.53;;;12.97;;
11935;SDS011;6027;48.576;9.180;2023-03-01T01:23:59;13.37;;;11.93;;
11935;SDS011;6027;48.576;9.180;2023-03-01T01:26:26;13.10;;;11.70;;
11935;SDS011;6027;48.576;9.180;2023-03-01T01:28:55;13.57;;;12.07;;
11935;SDS011;6027;48.576;9.180;2023-03-01T01:31:21;14.33;;;11.43;;
11935;SDS011;6027;48.576;9.180;2023-03-01T01:33:50;16.10;;;12.13;;
11935;SDS011;6027;48.576;9.180;2023-03-01T01:36:17;16.40;;;12.33;;
11935;SDS011;6027;48.576;9.180;2023-03-01T01:38:42;14.67;;;12.03;;
11935;SDS011;6027;48.576;9.180;2023-03-01T01:41:09;16.13;;;12.67;;
11935;SDS011;6027;48.576;9.180;2023-03-01T01:43:47;15.60;;;13.10;;
11935;SDS011;6027;48.576;9.180;2023-03-01T01:48:57;17.67;;;13.70;;
11935;SDS011;6027;48.576;9.180;2023-03-01T01:51:32;18.30;;;14.67;;
11935;SDS011;6027;48.576;9.180;2023-03-01T01:54:05;19.23;;;14.23;;
11935;SDS011;6027;48.576;9.180;2023-03-01T01:56:37;15.77;;;13.57;;
11935;SDS011;6027;48.576;9.180;2023-03-01T01:59:07;14.73;;;13.17;;
11935;SDS011;6027;48.576;9.180;2023-03-01T02:01:33;14.60;;;12.57;;
11935;SDS011;6027;48.576;9.180;2023-03-01T02:03:59;18.27;;;13.57;;
11935;SDS011;6027;48.576;9.180;2023-03-01T02:06:28;15.00;;;12.73;;
11935;SDS011;6027;48.576;9.180;2023-03-01T02:09:00;14.30;;;12.57;;
11935;SDS011;6027;48.576;9.180;2023-03-01T02:11:30;14.67;;;12.77;;
11935;SDS011;6027;48.576;9.180;2023-03-01T02:13:57;15.03;;;13.43;;
11935;SDS011;6027;48.576;9.180;2023-03-01T02:16:23;15.30;;;12.13;;
11935;SDS011;6027;48.576;9.180;2023-03-01T02:18:48;15.83;;;13.50;;
11935;SDS011;6027;48.576;9.180;2023-03-01T02:21:17;15.73;;;13.50;;
11935;SDS011;6027;48.576;9.180;2023-03-01T02:23:47;16.50;;;13.70;;
11935;SDS011;6027;48.576;9.180;2023-03-01T02:26:33;16.93;;;13.53;;
11935;SDS011;6027;48.576;9.180;2023-03-01T02:29:02;15.87;;;13.63;;
11935;SDS011;6027;48.576;9.180;2023-03-01T02:31:27;15.30;;;13.70;;
11935;SDS011;6027;48.576;9.180;2023-03-01T02:34:15;15.60;;;13.27;;
11935;SDS011;6027;48.576;9.180;2023-03-01T02:36:52;15.17;;;13.57;;
11935;SDS011;6027;48.576;9.180;2023-03-01T02:39:22;15.80;;;13.73;;
11935;SDS011;6027;48.576;9.180;2023-03-01T02:41:52;14.77;;;13.20;;
11935;SDS011;6027;48.576;9.180;2023-03-01T02:44:19;16.30;;;14.17;;
11935;SDS011;6027;48.576;9.180;2023-03-01T02:46:49;16.47;;;13.00;;
11935;SDS011;6027;48.576;9.180;2023-03-01T02:49:24;15.17;;;13.60;;
11935;SDS011;6027;48.576;9.180;2023-03-01T02:52:07;15.70;;;13.27;;
11935;SDS011;6027;48.576;9.180;2023-03-01T02:54:54;17.93;;;14.20;;
11935;SDS011;6027;48.576;9.180;2023-03-01T02:57:28;17.10;;;14.13;;
11935;SDS011;6027;48.576;9.180;2023-03-01T02:59:56;15.93;;;13.90;;
11935;SDS011;6027;48.576;9.180;2023-03-01T03:02:25;16.07;;;14.03;;
11935;SDS011;6027;48.576;9.180;2023-03-01T03:05:07;14.30;;;12.80;;
11935;SDS011;6027;48.576;9.180;2023-03-01T03:07:36;16.83;;;14.10;;
11935;SDS011;6027;48.576;9.180;2023-03-01T03:10:03;15.63;;;13.97;;
11935;SDS011;6027;48.576;9.180;2023-03-01T03:12:31;15.20;;;13.60;;
11935;SDS011;6027;48.576;9.180;2023-03-01T03:14:56;14.87;;;13.13;;
11935;SDS011;6027;48.576;9.180;2023-03-01T03:17:22;18.30;;;15.03;;
11935;SDS011;6027;48.576;9.180;2023-03-01T03:19:47;15.93;;;14.23;;
11935;SDS011;6027;48.576;9.180;2023-03-01T03:22:13;16.30;;;14.47;;
11935;SDS011;6027;48.576;9.180;2023-03-01T03:24:38;17.33;;;14.10;;
11935;SDS011;6027;48.576;9.180;2023-03-01T03:27:04;16.57;;;14.33;;
11935;SDS011;6027;48.576;9.180;2023-03-01T03:29:30;16.90;;;15.10;;
11935;SDS011;6027;48.576;9.180;2023-03-01T03:31:56;17.13;;;13.57;;
11935;SDS011;6027;48.576;9.180;2023-03-01T03:34:21;15.73;;;14.07;;
11935;SDS011;6027;48.576;9.180;2023-03-01T03:36:47;17.30;;;14.43;;
11935;SDS011;6027;48.576;9.180;2023-03-01T03:39:12;18.37;;;14.40;;
11935;SDS011;6027;48.576;9.180;2023-03-01T03:41:38;16.60;;;14.77;;
11935;SDS011;6027;48.576;9.180;2023-03-01T03:44:03;16.97;;;15.17;;
11935;SDS011;6027;48.576;9.180;2023-03-01T03:46:29;16.37;;;14.50;;
11935;SDS011;6027;48.576;9.180;2023-03-01T03:48:55;15.93;;;13.73;;
11935;SDS011;6027;48.576;9.180;2023-03-01T03:51:20;17.77;;;14.43;;
11935;SDS011;6027;48.576;9.180;2023-03-01T03:53:47;17.70;;;15.17;;
11935;SDS011;6027;48.576;9.180;2023-03-01T03:56:13;17.03;;;14.00;;
11935;SDS011;6027;48.576;9.180;2023-03-01T03:58:38;16.47;;;14.47;;
11935;SDS011;6027;48.576;9.180;2023-03-01T04:01:04;17.73;;;14.83;;
11935;SDS011;6027;48.576;9.180;2023-03-01T04:03:30;17.27;;;15.00;;
11935;SDS011;6027;48.576;9.180;2023-03-01T04:05:57;17.43;;;14.87;;
11935;SDS011;6027;48.576;9.180;2023-03-01T04:08:24;17.87;;;15.00;;
11935;SDS011;6027;48.576;9.180;2023-03-01T04:10:51;17.23;;;14.63;;
11935;SDS011;6027;48.576;9.180;2023-03-01T04:13:19;16.23;;;14.50;;
11935;SDS011;6027;48.576;9.180;2023-03-01T04:15:47;16.07;;;14.07;;
11935;SDS011;6027;48.576;9.180;2023-03-01T04:18:15;16.13;;;14.43;;
11935;SDS011;6027;48.576;9.180;2023-03-01T04:20:42;20.40;;;17.40;;
11935;SDS011;6027;48.576;9.180;2023-03-01T04:23:11;17.27;;;15.20;;
11935;SDS011;6027;48.576;9.180;2023-03-01T04:25:50;17.40;;;15.13;;
11935;SDS011;6027;48.576;9.180;2023-03-01T04:30:51;18.33;;;15.23;;
11935;SDS011;6027;48.576;9.180;2023-03-01T04:35:48;16.83;;;14.53;;
11935;SDS011;6027;48.576;9.180;2023-03-01T04:38:14;16.77;;;15.03;;
11935;SDS011;6027;48.576;9.180;2023-03-01T04:40:41;20.60;;;15.77;;
11935;SDS011;6027;48.576;9.180;2023-03-01T04:43:08;17.03;;;15.03;;
11935;SDS011;6027;48.576;9.180;2023-03-01T04:45:35;18.90;;;15.07;;
11935;SDS011;6027;48.576;9.180;2023-03-01T04:48:01;19.97;;;14.60;;
11935;SDS011;6027;48.576;9.180;2023-03-01T04:50:28;18.13;;;15.80;;
11935;SDS011;6027;48.576;9.180;2023-03-01T04:52:54;17.40;;;14.73;;
11935;SDS011;6027;48.576;9.180;2023-03-01T04:55:24;17.30;;;15.37;;
11935;SDS011;6027;48.576;9.180;2023-03-01T04:57:51;17.97;;;15.90;;
11935;SDS011;6027;48.576;9.180;2023-03-01T05:00:16;17.90;;;15.37;;
11935;SDS011;6027;48.576;9.180;2023-03-01T05:02:52;17.47;;;15.63;;
11935;SDS011;6027;48.576;9.180;2023-03-01T05:05:28;18.53;;;15.50;;
11935;SDS011;6027;48.576;9.180;2023-03-01T05:07:57;17.40;;;15.50;;
11935;SDS011;6027;48.576;9.180;2023-03-01T05:10:25;17.77;;;15.43;;
11935;SDS011;6027;48.576;9.180;2023-03-01T05:12:53;20.63;;;15.20;;
11935;SDS011;6027;48.576;9.180;2023-03-01T05:15:19;17.20;;;15.50;;
11935;SDS011;6027;48.576;9.180;2023-03-01T05:17:46;21.30;;;15.17;;
11935;SDS011;6027;48.576;9.180;2023-03-01T05:20:13;17.77;;;15.93;;
11935;SDS011;6027;48.576;9.180;2023-03-01T05:22:38;17.13;;;15.30;;
11935;SDS011;6027;48.576;9.180;2023-03-01T05:25:03;18.27;;;16.30;;
11935;SDS011;6027;48.576;9.180;2023-03-01T05:27:29;21.73;;;15.97;;
11935;SDS011;6027;48.576;9.180;2023-03-01T05:29:55;17.93;;;15.87;;
11935;SDS011;6027;48.576;9.180;2023-03-01T05:32:21;21.07;;;16.77;;
11935;SDS011;6027;48.576;9.180;2023-03-01T05:34:47;18.83;;;16.83;;
11935;SDS011;6027;48.576;9.180;2023-03-01T05:37:12;22.57;;;18.80;;
11935;SDS011;6027;48.576;9.180;2023-03-01T05:39:38;23.70;;;17.50;;
11935;SDS011;6027;48.576;9.180;2023-03-01T05:42:04;22.57;;;17.60;;
11935;SDS011;6027;48.576;9.180;2023-03-01T05:44:29;20.37;;;16.70;;
11935;SDS011;6027;48.576;9.180;2023-03-01T05:46:55;18.30;;;15.90;;
11935;SDS011;6027;48.576;9.180;2023-03-01T05:49:21;21.00;;;17.37;;
11935;SDS011;6027;48.576;9.180;2023-03-01T05:51:50;19.67;;;15.77;;
11935;SDS011;6027;48.576;9.180;2023-03-01T05:54:17;18.90;;;15.70;;
11935;SDS011;6027;48.576;9.180;2023-03-01T05:56:43;19.87;;;16.17;;
11935;SDS011;6027;48.576;9.180;2023-03-01T05:59:10;19.43;;;17.30;;
11935;SDS011;6027;48.576;9.180;2023-03-01T06:01:35;23.00;;;17.77;;
11935;SDS011;6027;48.576;9.180;2023-03-01T06:04:02;19.53;;;17.37;;
11935;SDS011;6027;48.576;9.180;2023-03-01T06:06:28;19.77;;;17.20;;
11935;SDS011;6027;48.576;9.180;2023-03-01T06:08:53;20.03;;;17.93;;
11935;SDS011;6027;48.576;9.180;2023-03-01T06:11:19;19.20;;;17.17;;
11935;SDS011;6027;48.576;9.180;2023-03-01T06:13:46;22.17;;;18.33;;
11935;SDS011;6027;48.576;9.180;2023-03-01T06:16:12;21.40;;;17.87;;
11935;SDS011;6027;48.576;9.180;2023-03-01T06:18:38;19.50;;;17.20;;
11935;SDS011;6027;48.576;9.180;2023-03-01T06:21:04;18.27;;;16.23;;
11935;SDS011;6027;48.576;9.180;2023-03-01T06:23:31;21.83;;;17.57;;
11935;SDS011;6027;48.576;9.180;2023-03-01T06:25:57;21.37;;;17.53;;
11935;SDS011;6027;48.576;9.180;2023-03-01T06:28:22;18.70;;;16.27;;
11935;SDS011;6027;48.576;9.180;2023-03-01T06:30:49;21.10;;;16.67;;
11935;SDS011;6027;48.576;9.180;2023-03-01T06:33:15;20.40;;;17.23;;
11935;SDS011;6027;48.576;9.180;2023-03-01T06:35:40;18.87;;;16.60;;
11935;SDS011;6027;48.576;9.180;2023-03-01T06:38:06;21.83;;;18.47;;
11935;SDS011;6027;48.576;9.180;2023-03-01T06:40:31;18.50;;;16.57;;
11935;SDS011;6027;48.576;9.180;2023-03-01T06:42:57;22.17;;;18.47;;
11935;SDS011;6027;48.576;9.180;2023-03-01T06:45:23;18.37;;;16.00;;
11935;SDS011;6027;48.576;9.180;2023-03-01T06:47:49;20.13;;;17.10;;
11935;SDS011;6027;48.576;9.180;2023-03-01T06:50:15;21.97;;;16.07;;
11935;SDS011;6027;48.576;9.180;2023-03-01T06:52:42;18.17;;;16.07;;
11935;SDS011;6027;48.576;9.180;2023-03-01T06:55:11;20.30;;;17.43;;
11935;SDS011;6027;48.576;9.180;2023-03-01T06:57:38;20.10;;;16.97;;
11935;SDS011;6027;48.576;9.180;2023-03-01T07:00:03;19.33;;;17.23;;
11935;SDS011;6027;48.576;9.180;2023-03-01T07:02:29;19.77;;;16.57;;
11935;SDS011;6027;48.576;9.180;2023-03-01T07:04:55;21.57;;;18.23;;
11935;SDS011;6027;48.576;9.180;2023-03-01T07:07:21;20.90;;;18.57;;
11935;SDS011;6027;48.576;9.180;2023-03-01T07:09:48;19.63;;;17.13;;
11935;SDS011;6027;48.576;9.180;2023-03-01T07:12:14;22.43;;;19.43;;
11935;SDS011;6027;48.576;9.180;2023-03-01T07:14:40;20.47;;;17.73;;
11935;SDS011;6027;48.576;9.180;2023-03-01T07:17:05;22.20;;;18.20;;
11935;SDS011;6027;48.576;9.180;2023-03-01T07:19:31;22.00;;;19.17;;
11935;SDS011;6027;48.576;9.180;2023-03-01T07:21:56;22.30;;;18.93;;
11935;SDS011;6027;48.576;9.180;2023-03-01T07:24:22;20.07;;;17.97;;
11935;SDS011;6027;48.576;9.180;2023-03-01T07:26:48;22.43;;;17.80;;
11935;SDS011;6027;48.576;9.180;2023-03-01T07:29:15;21.80;;;17.60;;
11935;SDS011;6027;48.576;9.180;2023-03-01T07:31:41;20.40;;;17.63;;
11935;SDS011;6027;48.576;9.180;2023-03-01T07:34:06;20.60;;;17.67;;
11935;SDS011;6027;48.576;9.180;2023-03-01T07:36:32;24.07;;;17.87;;
11935;SDS011;6027;48.576;9.180;2023-03-01T07:38:57;22.17;;;17.43;;
11935;SDS011;6027;48.576;9.180;2023-03-01T07:41:23;19.87;;;17.80;;
11935;SDS011;6027;48.576;9.180;2023-03-01T07:43:49;20.17;;;18.00;;
11935;SDS011;6027;48.576;9.180;2023-03-01T07:46:14;19.30;;;17.00;;
11935;SDS011;6027;48.576;9.180;2023-03-01T07:48:40;23.07;;;17.27;;
11935;SDS011;6027;48.576;9.180;2023-03-01T07:51:05;19.93;;;17.17;;
11935;SDS011;6027;48.576;9.180;2023-03-01T07:53:32;19.67;;;16.50;;
11935;SDS011;6027;48.576;9.180;2023-03-01T07:58:27;18.53;;;16.53;;
11935;SDS011;6027;48.576;9.180;2023-03-01T08:00:53;19.37;;;17.27;;
11935;SDS011;6027;48.576;9.180;2023-03-01T08:03:18;21.10;;;17.40;;
11935;SDS011;6027;48.576;9.180;2023-03-01T08:05:43;19.93;;;17.87;;
11935;SDS011;6027;48.576;9.180;2023-03-01T08:08:09;19.77;;;16.70;;
11935;SDS011;6027;48.576;9.180;2023-03-01T08:10:36;19.00;;;17.00;;
11935;SDS011;6027;48.576;9.180;2023-03-01T08:13:01;22.20;;;16.83;;
11935;SDS011;6027;48.576;9.180;2023-03-01T08:15:27;21.10;;;17.63;;
11935;SDS011;6027;48.576;9.180;2023-03-01T08:17:52;19.60;;;17.50;;
11935;SDS011;6027;48.576;9.180;2023-03-01T08:20:18;19.57;;;17.07;;
11935;SDS011;6027;48.576;9.180;2023-03-01T08:22:43;19.47;;;17.33;;
11935;SDS011;6027;48.576;9.180;2023-03-01T08:25:09;20.03;;;17.93;;
11935;SDS011;6027;48.576;9.180;2023-03-01T08:27:35;20.47;;;18.47;;
11935;SDS011;6027;48.576;9.180;2023-03-01T08:30:00;15.73;;;14.17;;
11935;SDS011;6027;48.576;9.180;2023-03-01T08:32:25;19.97;;;17.83;;
11935;SDS011;6027;48.576;9.180;2023-03-01T08:34:51;20.47;;;18.30;;
11935;SDS011;6027;48.576;9.180;2023-03-01T08:37:16;19.80;;;17.90;;
11935;SDS011;6027;48.576;9.180;2023-03-01T08:39:42;19.23;;;17.43;;
11935;SDS011;6027;48.576;9.180;2023-03-01T08:42:07;20.23;;;18.13;;
11935;SDS011;6027;48.576;9.180;2023-03-01T08:44:33;19.87;;;17.87;;
11935;SDS011;6027;48.576;9.180;2023-03-01T08:47:00;20.17;;;18.17;;
11935;SDS011;6027;48.576;9.180;2023-03-01T08:49:27;19.50;;;17.57;;
11935;SDS011;6027;48.576;9.180;2023-03-01T08:51:52;19.70;;;17.80;;
11935;SDS011;6027;48.576;9.180;2023-03-01T08:54:20;19.87;;;18.07;;
11935;SDS011;6027;48.576;9.180;2023-03-01T08:56:47;20.50;;;18.60;;
11935;SDS011;6027;48.576;9.180;2023-03-01T08:59:14;19.63;;;17.73;;
11935;SDS011;6027;48.576;9.180;2023-03-01T09:01:40;19.30;;;17.40;;
11935;SDS011;6027;48.576;9.180;2023-03-01T09:04:10;18.67;;;16.87;;
11935;SDS011;6027;48.576;9.180;2023-03-01T09:06:36;19.67;;;17.57;;
11935;SDS011;6027;48.576;9.180;2023-03-01T09:09:03;19.57;;;17.77;;
11935;SDS011;6027;48.576;9.180;2023-03-01T09:11:29;27.03;;;24.13;;
11935;SDS011;6027;48.576;9.180;2023-03-01T09:13:56;21.20;;;18.93;;
11935;SDS011;6027;48.576;9.180;2023-03-01T09:16:21;22.57;;;20.17;;
11935;SDS011;6027;48.576;9.180;2023-03-01T09:18:51;29.17;;;26.10;;
11935;SDS011;6027;48.576;9.180;2023-03-01T09:21:19;24.17;;;21.70;;
11935;SDS011;6027;48.576;9.180;2023-03-01T09:23:46;22.20;;;19.77;;
11935;SDS011;6027;48.576;9.180;2023-03-01T09:26:16;19.70;;;17.80;;
11935;SDS011;6027;48.576;9.180;2023-03-01T09:28:45;18.93;;;17.10;;
11935;SDS011;6027;48.576;9.180;2023-03-01T09:31:11;20.20;;;18.23;;
11935;SDS011;6027;48.576;9.180;2023-03-01T09:33:38;19.63;;;17.73;;
11935;SDS011;6027;48.576;9.180;2023-03-01T09:36:06;19.70;;;17.80;;
11935;SDS011;6027;48.576;9.180;2023-03-01T09:38:35;18.50;;;16.80;;
11935;SDS011;6027;48.576;9.180;2023-03-01T09:41:00;19.47;;;17.57;;
11935;SDS011;6027;48.576;9.180;2023-03-01T09:43:41;21.57;;;19.37;;
11935;SDS011;6027;48.576;9.180;2023-03-01T09:46:08;18.30;;;16.50;;
11935;SDS011;6027;48.576;9.180;2023-03-01T09:49:13;22.83;;;20.53;;
11935;SDS011;6027;48.576;9.180;2023-03-01T09:51:35;21.27;;;19.17;;
11935;SDS011;6027;48.576;9.180;2023-03-01T09:54:02;19.47;;;17.57;;
11935;SDS011;6027;48.576;9.180;2023-03-01T09:58:57;19.30;;;17.10;;
11935;SDS011;6027;48.576;9.180;2023-03-01T10:09:40;19.20;;;17.27;;
11935;SDS011;6027;48.576;9.180;2023-03-01T10:12:18;20.17;;;18.07;;
11935;SDS011;6027;48.576;9.180;2023-03-01T10:15:00;18.73;;;16.90;;
11935;SDS011;6027;48.576;9.180;2023-03-01T10:22:49;20.03;;;16.73;;
11935;SDS011;6027;48.576;9.180;2023-03-01T10:28:14;20.97;;;18.27;;
11935;SDS011;6027;48.576;9.180;2023-03-01T10:30:41;19.47;;;17.37;;
11935;SDS011;6027;48.576;9.180;2023-03-01T10:33:29;19.33;;;17.30;;
11935;SDS011;6027;48.576;9.180;2023-03-01T10:35:57;20.10;;;17.33;;
11935;SDS011;6027;48.576;9.180;2023-03-01T10:38:23;20.63;;;17.60;;
11935;SDS011;6027;48.576;9.180;2023-03-01T10:40:52;19.83;;;17.73;;
11935;SDS011;6027;48.576;9.180;2023-03-01T10:43:49;17.00;;;15.27;;
11935;SDS011;6027;48.576;9.180;2023-03-01T10:51:47;19.17;;;15.93;;
11935;SDS011;6027;48.576;9.180;2023-03-01T10:54:18;18.33;;;16.43;;
11935;SDS011;6027;48.576;9.180;2023-03-01T10:56:51;19.77;;;17.47;;
11935;SDS011;6027;48.576;9.180;2023-03-01T10:59:21;16.77;;;15.03;;
11935;SDS011;6027;48.576;9.180;2023-03-01T11:02:01;19.03;;;15.90;;
11935;SDS011;6027;48.576;9.180;2023-03-01T11:04:40;17.60;;;15.80;;
11935;SDS011;6027;48.576;9.180;2023-03-01T11:07:24;17.33;;;15.53;;
11935;SDS011;6027;48.576;9.180;2023-03-01T11:09:50;16.53;;;14.60;;
11935;SDS011;6027;48.576;9.180;2023-03-01T11:12:16;16.97;;;15.03;;
11935;SDS011;6027;48.576;9.180;2023-03-01T11:14:52;16.50;;;14.80;;
11935;SDS011;6027;48.576;9.180;2023-03-01T11:17:24;16.23;;;14.57;;
11935;SDS011;6027;48.576;9.180;2023-03-01T11:20:01;16.53;;;14.57;;
11935;SDS011;6027;48.576;9.180;2023-03-01T11:22:46;17.50;;;15.03;;
11935;SDS011;6027;48.576;9.180;2023-03-01T11:25:15;15.90;;;13.60;;
11935;SDS011;6027;48.576;9.180;2023-03-01T11:27:44;18.40;;;15.27;;
11935;SDS011;6027;48.576;9.180;2023-03-01T11:38:22;15.53;;;13.93;;
11935;SDS011;6027;48.576;9.180;2023-03-01T11:46:23;17.57;;;13.60;;
11935;SDS011;6027;48.576;9.180;2023-03-01T12:06:00;13.83;;;12.43;;
11935;SDS011;6027;48.576;9.180;2023-03-01T12:11:52;14.63;;;13.13;;
11935;SDS011;6027;48.576;9.180;2023-03-01T12:14:55;16.80;;;13.80;;
11935;SDS011;6027;48.576;9.180;2023-03-01T12:25:32;14.07;;;12.57;;
11935;SDS011;6027;48.576;9.180;2023-03-01T12:41:28;13.30;;;11.90;;
11935;SDS011;6027;48.576;9.180;2023-03-01T12:44:13;13.63;;;12.23;;
11935;SDS011;6027;48.576;9.180;2023-03-01T12:50:10;15.40;;;12.27;;
11935;SDS011;6027;48.576;9.180;2023-03-01T12:54:58;13.97;;;12.53;;
11935;SDS011;6027;48.576;9.180;2023-03-01T12:57:34;13.50;;;12.10;;
11935;SDS011;6027;48.576;9.180;2023-03-01T13:02:51;14.77;;;12.63;;
11935;SDS011;6027;48.576;9.180;2023-03-01T13:08:10;13.87;;;12.43;;
11935;SDS011;6027;48.576;9.180;2023-03-01T13:10:40;15.10;;;12.93;;
11935;SDS011;6027;48.576;9.180;2023-03-01T13:15:44;15.07;;;13.43;;
11935;SDS011;6027;48.576;9.180;2023-03-01T13:30:57;15.77;;;12.60;;
11935;SDS011;6027;48.576;9.180;2023-03-01T13:35:52;14.20;;;12.70;;
11935;SDS011;6027;48.576;9.180;2023-03-01T13:41:13;14.13;;;12.57;;
11935;SDS011;6027;48.576;9.180;2023-03-01T13:43:43;14.18;;;12.02;;
11935;SDS011;6027;48.576;9.180;2023-03-01T13:46:18;15.25;;;13.63;;
11935;SDS011;6027;48.576;9.180;2023-03-01T13:48:49;13.77;;;12.37;;
11935;SDS011;6027;48.576;9.180;2023-03-01T13:51:19;13.73;;;12.10;;
11935;SDS011;6027;48.576;9.180;2023-03-01T13:53:48;14.07;;;12.53;;
11935;SDS011;6027;48.576;9.180;2023-03-01T13:56:57;16.88;;;12.43;;
11935;SDS011;6027;48.576;9.180;2023-03-01T14:01:51;14.23;;;12.73;;
11935;SDS011;6027;48.576;9.180;2023-03-01T14:06:46;13.75;;;12.35;;
11935;SDS011;6027;48.576;9.180;2023-03-01T14:09:20;15.55;;;13.00;;
11935;SDS011;6027;48.576;9.180;2023-03-01T14:19:24;14.82;;;11.98;;
11935;SDS011;6027;48.576;9.180;2023-03-01T14:22:25;14.25;;;11.93;;
11935;SDS011;6027;48.576;9.180;2023-03-01T14:24:50;15.17;;;11.97;;
11935;SDS011;6027;48.576;9.180;2023-03-01T14:27:18;15.77;;;12.97;;
11935;SDS011;6027;48.576;9.180;2023-03-01T14:29:44;13.65;;;12.23;;
11935;SDS011;6027;48.576;9.180;2023-03-01T14:32:21;14.45;;;12.13;;
11935;SDS011;6027;48.576;9.180;2023-03-01T14:34:49;14.43;;;11.10;;
11935;SDS011;6027;48.576;9.180;2023-03-01T14:39:56;13.57;;;11.35;;
11935;SDS011;6027;48.576;9.180;2023-03-01T14:42:23;14.07;;;12.20;;
11935;SDS011;6027;48.576;9.180;2023-03-01T14:44:53;13.73;;;11.93;;
11935;SDS011;6027;48.576;9.180;2023-03-01T14:47:27;12.68;;;11.00;;
11935;SDS011;6027;48.576;9.180;2023-03-01T14:50:02;13.40;;;12.00;;
11935;SDS011;6027;48.576;9.180;2023-03-01T14:52:32;14.93;;;12.17;;
11935;SDS011;6027;48.576;9.180;2023-03-01T14:55:02;12.60;;;11.30;;
11935;SDS011;6027;48.576;9.180;2023-03-01T14:57:31;14.23;;;12.48;;
11935;SDS011;6027;48.576;9.180;2023-03-01T14:59:58;13.60;;;12.00;;
11935;SDS011;6027;48.576;9.180;2023-03-01T15:02:27;14.65;;;12.20;;
11935;SDS011;6027;48.576;9.180;2023-03-01T15:04:56;13.10;;;11.80;;
11935;SDS011;6027;48.576;9.180;2023-03-01T15:07:26;13.37;;;11.57;;
11935;SDS011;6027;48.576;9.180;2023-03-01T15:09:55;13.40;;;11.87;;
11935;SDS011;6027;48.576;9.180;2023-03-01T15:14:53;15.60;;;12.63;;
11935;SDS011;6027;48.576;9.180;2023-03-01T15:17:20;13.23;;;11.83;;
11935;SDS011;6027;48.576;9.180;2023-03-01T15:19:54;15.20;;;12.57;;
11935;SDS011;6027;48.576;9.180;2023-03-01T15:22:20;14.93;;;12.33;;
11935;SDS011;6027;48.576;9.180;2023-03-01T15:24:47;13.40;;;12.00;;
11935;SDS011;6027;48.576;9.180;2023-03-01T15:27:15;13.20;;;11.80;;
11935;SDS011;6027;48.576;9.180;2023-03-01T15:29:47;14.27;;;12.02;;
11935;SDS011;6027;48.576;9.180;2023-03-01T15:34:55;14.18;;;11.82;;
11935;SDS011;6027;48.576;9.180;2023-03-01T15:37:38;17.38;;;12.45;;
11935;SDS011;6027;48.576;9.180;2023-03-01T15:40:22;16.38;;;13.25;;
11935;SDS011;6027;48.576;9.180;2023-03-01T15:42:57;14.48;;;13.02;;
11935;SDS011;6027;48.576;9.180;2023-03-01T15:45:25;15.70;;;13.18;;
11935;SDS011;6027;48.576;9.180;2023-03-01T15:47:56;14.65;;;12.50;;
11935;SDS011;6027;48.576;9.180;2023-03-01T15:50:28;15.27;;;12.43;;
11935;SDS011;6027;48.576;9.180;2023-03-01T15:52:58;15.73;;;13.40;;
11935;SDS011;6027;48.576;9.180;2023-03-01T15:55:26;15.20;;;12.70;;
11935;SDS011;6027;48.576;9.180;2023-03-01T15:57:58;17.93;;;12.77;;
11935;SDS011;6027;48.576;9.180;2023-03-01T16:00:26;17.07;;;12.47;;
11935;SDS011;6027;48.576;9.180;2023-03-01T16:02:51;15.23;;;12.70;;
11935;SDS011;6027;48.576;9.180;2023-03-01T16:05:23;15.02;;;13.27;;
11935;SDS011;6027;48.576;9.180;2023-03-01T16:07:51;13.85;;;12.15;;
11935;SDS011;6027;48.576;9.180;2023-03-01T16:10:17;16.23;;;12.15;;
11935;SDS011;6027;48.576;9.180;2023-03-01T16:12:42;14.07;;;12.52;;
11935;SDS011;6027;48.576;9.180;2023-03-01T16:15:13;19.30;;;17.20;;
11935;SDS011;6027;48.576;9.180;2023-03-01T16:17:44;16.25;;;12.88;;
11935;SDS011;6027;48.576;9.180;2023-03-01T16:20:10;14.57;;;12.17;;
11935;SDS011;6027;48.576;9.180;2023-03-01T16:22:36;12.63;;;11.17;;
11935;SDS011;6027;48.576;9.180;2023-03-01T16:25:02;13.67;;;11.67;;
11935;SDS011;6027;48.576;9.180;2023-03-01T16:27:27;13.67;;;12.27;;
11935;SDS011;6027;48.576;9.180;2023-03-01T16:29:53;13.60;;;12.20;;
11935;SDS011;6027;48.576;9.180;2023-03-01T16:32:18;15.70;;;11.87;;
11935;SDS011;6027;48.576;9.180;2023-03-01T16:34:44;14.70;;;11.63;;
11935;SDS011;6027;48.576;9.180;2023-03-01T16:37:09;15.43;;;13.13;;
11935;SDS011;6027;48.576;9.180;2023-03-01T16:39:37;14.33;;;11.73;;
11935;SDS011;6027;48.576;9.180;2023-03-01T16:42:03;15.60;;;12.33;;
11935;SDS011;6027;48.576;9.180;2023-03-01T16:44:29;13.37;;;11.73;;
11935;SDS011;6027;48.576;9.180;2023-03-01T16:46:54;15.50;;;12.67;;
11935;SDS011;6027;48.576;9.180;2023-03-01T16:49:20;16.47;;;13.23;;
11935;SDS011;6027;48.576;9.180;2023-03-01T16:51:45;14.53;;;13.03;;
11935;SDS011;6027;48.576;9.180;2023-03-01T16:54:10;14.03;;;12.03;;
11935;SDS011;6027;48.576;9.180;2023-03-01T16:56:36;18.87;;;14.20;;
11935;SDS011;6027;48.576;9.180;2023-03-01T16:59:03;13.63;;;11.90;;
11935;SDS011;6027;48.576;9.180;2023-03-01T17:01:30;16.10;;;12.27;;
11935;SDS011;6027;48.576;9.180;2023-03-01T17:04:02;13.87;;;12.00;;